createdAt,value
2023-05-22T00:02:18.296Z,79.30
2023-05-22T00:04:48.563Z,79.10
2023-05-22T00:07:18.676Z,78.90
2023-05-22T00:09:48.528Z,78.70
2023-05-22T00:12:18.265Z,78.40
2023-05-22T00:14:47.834Z,78.20
2023-05-22T00:17:18.353Z,78.20
2023-05-22T00:19:48.216Z,78.20
2023-05-22T00:22:17.978Z,78.10
2023-05-22T00:24:47.887Z,78.00
2023-05-22T00:27:17.601Z,77.70
2023-05-22T00:29:47.286Z,77.70
2023-05-22T00:32:17.002Z,77.50
2023-05-22T00:34:46.803Z,77.40
2023-05-22T00:37:16.601Z,77.40
2023-05-22T00:39:46.346Z,77.00
2023-05-22T00:42:16.340Z,76.90
2023-05-22T00:44:46.201Z,76.40
2023-05-22T00:47:15.870Z,76.10
2023-05-22T00:49:46.189Z,75.80
2023-05-22T00:52:16.894Z,75.30
2023-05-22T00:54:46.833Z,75.40
2023-05-22T00:57:16.469Z,75.50
2023-05-22T00:59:46.880Z,75.20
2023-05-22T01:02:18.243Z,74.30
2023-05-22T01:04:52.463Z,73.90
2023-05-22T01:07:23.282Z,73.50
2023-05-22T01:09:54.463Z,73.80
2023-05-22T01:13:03.733Z,73.70
2023-05-22T01:16:12.987Z,73.20
2023-05-22T01:19:06.303Z,73.60
2023-05-22T01:22:00.546Z,73.40
2023-05-22T01:24:55.493Z,73.40
2023-05-22T01:28:04.445Z,73.30
2023-05-22T01:31:13.393Z,72.90
2023-05-22T01:33:53.262Z,72.60
2023-05-22T01:36:26.356Z,71.70
2023-05-22T01:38:56.533Z,71.60
2023-05-22T01:41:26.622Z,71.30
2023-05-22T01:43:56.612Z,70.00
2023-05-22T01:46:31.057Z,69.90
2023-05-22T01:49:01.132Z,69.50
2023-05-22T01:52:01.107Z,69.40
2023-05-22T01:54:44.079Z,68.80
2023-05-22T01:57:44.887Z,69.10
2023-05-22T02:00:20.203Z,68.90
2023-05-22T02:03:00.038Z,68.30
2023-05-22T02:05:37.434Z,67.50
2023-05-22T02:08:07.912Z,66.30
2023-05-22T02:10:39.669Z,66.20
2023-05-22T02:13:10.231Z,66.50
2023-05-22T02:15:40.500Z,65.70
2023-05-22T02:18:14.945Z,65.50
2023-05-22T02:20:44.793Z,65.10
2023-05-22T02:23:14.607Z,65.10
2023-05-22T02:25:44.513Z,65.10
2023-05-22T02:28:14.433Z,64.30
2023-05-22T02:30:44.069Z,64.40
2023-05-22T02:33:14.068Z,64.40
2023-05-22T02:35:43.708Z,64.40
2023-05-22T02:38:13.992Z,63.90
2023-05-22T02:40:43.660Z,63.40
2023-05-22T02:43:13.473Z,63.00
2023-05-22T02:45:43.229Z,62.90
2023-05-22T02:48:13.140Z,62.20
2023-05-22T02:50:43.089Z,62.20
2023-05-22T02:53:12.965Z,62.00
2023-05-22T02:55:43.476Z,61.90
2023-05-22T02:58:14.468Z,62.00
2023-05-22T03:00:45.052Z,61.90
2023-05-22T03:03:14.872Z,61.50
2023-05-22T03:05:45.054Z,60.70
2023-05-22T03:08:17.046Z,61.10
2023-05-22T03:10:47.005Z,60.40
2023-05-22T03:13:16.731Z,60.70
2023-05-22T03:15:46.677Z,60.00
2023-05-22T03:18:16.421Z,58.90
2023-05-22T03:20:46.048Z,59.40
2023-05-22T03:23:15.992Z,59.50
2023-05-22T03:25:45.930Z,59.30
2023-05-22T03:28:16.580Z,59.20
2023-05-22T03:30:46.349Z,59.40
2023-05-22T03:33:16.200Z,58.80
2023-05-22T03:35:46.351Z,58.70
2023-05-22T03:38:16.069Z,59.00
2023-05-22T03:40:45.703Z,58.70
2023-05-22T03:43:15.761Z,58.60
2023-05-22T03:45:45.625Z,58.50
2023-05-22T03:48:17.923Z,57.40
2023-05-22T03:50:47.763Z,57.60
2023-05-22T03:53:17.525Z,57.20
2023-05-22T03:55:47.105Z,57.50
2023-05-22T03:58:17.050Z,57.80
2023-05-22T04:00:48.099Z,57.30
2023-05-22T04:03:21.297Z,57.30
2023-05-22T04:05:51.143Z,57.00
2023-05-22T04:08:21.298Z,56.90
2023-05-22T04:10:51.374Z,56.50
2023-05-22T04:13:21.487Z,55.50
2023-05-22T04:15:51.950Z,55.40
2023-05-22T04:18:21.880Z,55.40
2023-05-22T04:20:53.555Z,55.60
2023-05-22T04:23:23.615Z,55.40
2023-05-22T04:25:53.845Z,55.20
2023-05-22T04:28:28.419Z,55.20
2023-05-22T04:30:59.291Z,55.20
2023-05-22T04:33:30.722Z,54.40
2023-05-22T04:36:00.491Z,54.30
2023-05-22T04:38:30.551Z,54.60
2023-05-22T04:41:00.277Z,54.40
2023-05-22T04:43:31.678Z,55.30
2023-05-22T04:46:01.526Z,54.90
2023-05-22T04:48:32.197Z,54.20
2023-05-22T04:51:04.227Z,52.50
2023-05-22T04:53:35.148Z,52.40
2023-05-22T04:56:05.047Z,51.60
2023-05-22T04:58:35.154Z,51.50
2023-05-22T05:01:05.252Z,52.00
2023-05-22T05:03:35.630Z,52.00
2023-05-22T05:06:05.553Z,52.30
2023-05-22T05:08:35.278Z,52.80
2023-05-22T05:11:05.242Z,52.30
2023-05-22T05:13:35.068Z,52.70
2023-05-22T05:16:05.635Z,53.00
2023-05-22T05:18:35.202Z,53.10
2023-05-22T05:21:04.997Z,52.60
2023-05-22T05:23:34.882Z,51.90
2023-05-22T05:26:04.760Z,52.50
2023-05-22T05:28:37.692Z,52.80
2023-05-22T05:31:07.468Z,51.10
2023-05-22T05:33:37.398Z,50.60
2023-05-22T05:36:07.590Z,51.10
2023-05-22T05:38:37.431Z,50.90
2023-05-22T05:41:07.745Z,51.00
2023-05-22T05:43:37.592Z,50.10
2023-05-22T05:46:07.962Z,49.50
2023-05-22T05:48:37.682Z,50.30
2023-05-22T05:51:07.674Z,49.80
2023-05-22T05:53:38.828Z,50.00
2023-05-22T05:56:09.763Z,50.40
2023-05-22T05:58:40.027Z,50.50
2023-05-22T06:01:10.108Z,50.50
2023-05-22T06:03:40.229Z,50.30
2023-05-22T06:06:10.285Z,50.50
2023-05-22T06:08:40.334Z,50.20
2023-05-22T06:11:11.125Z,49.90
2023-05-22T06:13:40.920Z,50.10
2023-05-22T06:16:10.958Z,50.20
2023-05-22T06:18:40.941Z,50.10
2023-05-22T06:21:10.725Z,49.80
2023-05-22T06:23:40.770Z,49.30
2023-05-22T06:26:10.906Z,49.30
2023-05-22T06:28:40.771Z,49.00
2023-05-22T06:31:13.783Z,49.50
2023-05-22T06:33:44.899Z,49.40
2023-05-22T06:36:14.825Z,48.30
2023-05-22T06:38:45.296Z,48.40
2023-05-22T06:41:15.070Z,48.60
2023-05-22T06:43:44.808Z,49.20
2023-05-22T06:46:14.783Z,48.70
2023-05-22T06:48:44.588Z,48.80
2023-05-22T06:51:16.784Z,48.30
2023-05-22T06:53:47.923Z,48.30
2023-05-22T06:56:18.150Z,47.90
2023-05-22T06:58:48.133Z,48.70
2023-05-22T07:01:18.294Z,48.00
2023-05-22T07:03:48.109Z,48.30
2023-05-22T07:06:17.872Z,47.80
2023-05-22T07:08:48.206Z,47.90
2023-05-22T07:11:18.874Z,48.20
2023-05-22T07:13:48.835Z,49.80
2023-05-22T07:16:18.545Z,50.60
2023-05-22T07:18:48.481Z,51.30
2023-05-22T07:21:18.354Z,52.10
2023-05-22T07:23:48.152Z,52.60
2023-05-22T07:26:18.175Z,53.40
2023-05-22T07:28:47.958Z,54.40
2023-05-22T07:31:18.243Z,55.00
2023-05-22T07:33:48.145Z,55.40
2023-05-22T07:36:19.302Z,56.00
2023-05-22T07:38:48.975Z,56.50
2023-05-22T07:41:18.708Z,57.10
2023-05-22T07:43:48.500Z,57.70
2023-05-22T07:46:18.488Z,59.10
2023-05-22T07:48:48.584Z,60.50
2023-05-22T07:51:18.514Z,62.50
2023-05-22T07:53:48.272Z,63.80
2023-05-22T07:56:19.409Z,65.10
2023-05-22T07:58:50.240Z,66.10
2023-05-22T08:01:20.087Z,66.60
2023-05-22T08:03:50.212Z,68.40
2023-05-22T08:06:20.121Z,69.20
2023-05-22T08:08:50.022Z,69.20
2023-05-22T08:11:19.865Z,69.30
2023-05-22T08:13:50.314Z,73.70
2023-05-22T08:16:20.252Z,74.10
2023-05-22T08:18:50.074Z,76.20
2023-05-22T08:21:20.443Z,77.00
2023-05-22T08:23:50.201Z,75.10
2023-05-22T08:26:19.956Z,74.50
2023-05-22T08:28:50.007Z,75.50
2023-05-22T08:31:20.615Z,75.30
2023-05-22T08:33:51.216Z,73.90
2023-05-22T08:36:22.322Z,73.90
2023-05-22T08:38:52.784Z,74.00
2023-05-22T08:41:23.765Z,74.10
2023-05-22T08:43:54.291Z,74.50
2023-05-22T08:46:30.972Z,74.70
2023-05-22T08:49:04.921Z,75.20
2023-05-22T08:51:40.112Z,76.90
2023-05-22T08:54:11.792Z,76.00
2023-05-22T08:56:52.853Z,75.90
2023-05-22T08:59:30.147Z,76.50
2023-05-22T09:02:03.798Z,76.30
2023-05-22T09:04:42.694Z,76.60
2023-05-22T09:07:13.588Z,76.90
2023-05-22T09:09:44.583Z,77.00
2023-05-22T09:12:15.974Z,76.60
2023-05-22T09:14:47.613Z,76.50
2023-05-22T09:17:22.920Z,76.80
2023-05-22T09:19:56.477Z,77.00
2023-05-22T09:22:37.066Z,76.90
2023-05-22T09:25:08.843Z,77.40
2023-05-22T09:27:39.086Z,77.90
2023-05-22T09:30:13.045Z,78.60
2023-05-22T09:32:43.458Z,78.00
2023-05-22T09:35:13.703Z,78.50
2023-05-22T09:37:44.088Z,78.70
2023-05-22T09:40:18.540Z,78.90
2023-05-22T09:42:48.701Z,78.90
2023-05-22T09:45:26.108Z,78.70
2023-05-22T09:47:56.529Z,78.50
2023-05-22T09:50:26.931Z,78.10
2023-05-22T09:52:57.882Z,77.60
2023-05-22T09:55:29.855Z,77.30
2023-05-22T09:58:01.574Z,78.00
2023-05-22T10:00:32.381Z,78.50
2023-05-22T10:03:14.458Z,78.90
2023-05-22T10:05:49.526Z,78.50
2023-05-22T10:08:31.008Z,78.10
2023-05-22T10:11:01.208Z,77.60
2023-05-22T10:13:32.242Z,77.20
2023-05-22T10:16:05.947Z,77.60
2023-05-22T10:18:36.206Z,77.50
2023-05-22T10:21:06.365Z,78.60
2023-05-22T10:23:37.004Z,79.20
2023-05-22T10:26:08.224Z,79.60
2023-05-22T10:28:44.921Z,79.60
2023-05-22T10:31:44.100Z,79.30
2023-05-22T10:34:20.080Z,81.70
2023-05-22T10:37:29.038Z,81.00
2023-05-22T10:40:11.113Z,80.90
2023-05-22T10:42:41.669Z,81.20
2023-05-22T10:45:12.956Z,82.10
2023-05-22T10:47:43.097Z,82.50
2023-05-22T10:50:14.238Z,83.90
2023-05-22T10:52:44.012Z,83.00
2023-05-22T10:55:14.235Z,84.30
2023-05-22T10:57:44.776Z,84.00
2023-05-22T11:00:18.124Z,84.40
2023-05-22T11:02:48.617Z,85.50
2023-05-22T11:05:36.855Z,85.20
2023-05-22T11:08:44.296Z,84.90
2023-05-22T11:11:15.972Z,84.80
2023-05-22T11:13:46.471Z,84.40
2023-05-22T11:16:19.153Z,84.30
2023-05-22T11:18:49.230Z,85.00
2023-05-22T11:21:19.157Z,85.20
2023-05-22T11:23:49.611Z,85.60
2023-05-22T11:26:27.982Z,86.50
2023-05-22T11:28:58.648Z,86.60
2023-05-22T11:31:29.328Z,87.20
2023-05-22T11:33:59.156Z,87.40
2023-05-22T11:36:31.976Z,87.40
2023-05-22T11:39:02.313Z,87.00
2023-05-22T11:41:38.217Z,86.60
2023-05-22T11:44:11.106Z,86.20
2023-05-22T11:46:42.167Z,85.20
2023-05-22T11:49:14.993Z,84.50
2023-05-22T11:51:45.119Z,84.10
2023-05-22T11:54:15.088Z,83.80
2023-05-22T11:56:45.433Z,83.20
2023-05-22T11:59:15.653Z,83.20
2023-05-22T12:01:45.532Z,83.00
2023-05-22T12:04:15.639Z,82.90
2023-05-22T12:06:46.442Z,82.70
2023-05-22T12:09:16.549Z,82.60
2023-05-22T12:11:52.886Z,82.70
2023-05-22T12:14:31.710Z,82.50
2023-05-22T12:17:02.305Z,82.40
2023-05-22T12:19:32.395Z,82.20
2023-05-22T12:22:02.826Z,81.60
2023-05-22T12:24:47.807Z,81.40
2023-05-22T12:27:18.838Z,81.10
2023-05-22T12:29:48.605Z,80.40
2023-05-22T12:32:20.073Z,80.00
2023-05-22T12:34:52.128Z,80.00
2023-05-22T12:37:30.126Z,79.90
2023-05-22T12:40:00.521Z,79.40
2023-05-22T12:42:31.333Z,79.20
2023-05-22T12:45:02.421Z,78.70
2023-05-22T12:47:32.483Z,78.80
2023-05-22T12:50:02.452Z,79.00
2023-05-22T12:52:32.209Z,78.90
2023-05-22T12:55:02.210Z,79.00
2023-05-22T12:57:32.205Z,78.90
2023-05-22T13:00:02.517Z,79.00
2023-05-22T13:02:32.486Z,79.30
2023-05-22T13:05:02.302Z,79.20
2023-05-22T13:07:33.052Z,79.50
2023-05-22T13:10:02.800Z,79.80
2023-05-22T13:12:36.789Z,80.00
2023-05-22T13:15:07.316Z,80.40
2023-05-22T13:17:37.269Z,81.00
2023-05-22T13:20:07.711Z,81.00
2023-05-22T13:22:37.706Z,81.00
2023-05-22T13:25:08.412Z,81.10
2023-05-22T13:27:38.418Z,81.60
2023-05-22T13:30:09.063Z,81.60
2023-05-22T13:32:38.920Z,81.80
2023-05-22T13:35:09.335Z,81.70
2023-05-22T13:37:39.432Z,81.70
2023-05-22T13:40:10.149Z,81.60
2023-05-22T13:42:40.895Z,81.40
2023-05-22T13:45:11.771Z,81.80
2023-05-22T13:47:42.210Z,82.00
2023-05-22T13:50:12.692Z,82.30
2023-05-22T13:52:42.912Z,82.70
2023-05-22T13:55:12.804Z,83.80
2023-05-22T13:57:42.817Z,83.50
2023-05-22T14:00:13.163Z,84.00
2023-05-22T14:02:43.398Z,84.20
2023-05-22T14:05:13.344Z,84.40
2023-05-22T14:07:43.195Z,84.40
2023-05-22T14:10:13.461Z,84.60
2023-05-22T14:12:43.476Z,84.80
2023-05-22T14:15:15.726Z,84.90
2023-05-22T14:17:45.703Z,85.10
2023-05-22T14:20:15.705Z,85.10
2023-05-22T14:22:56.494Z,85.50
2023-05-22T14:25:28.061Z,85.60
2023-05-22T14:27:58.147Z,85.50
2023-05-22T14:30:28.202Z,86.20
2023-05-22T14:32:58.434Z,86.60
2023-05-22T14:35:28.309Z,86.60
2023-05-22T14:37:58.031Z,86.50
2023-05-22T14:40:27.965Z,86.70
2023-05-22T14:42:57.987Z,87.00
2023-05-22T14:45:27.838Z,87.00
2023-05-22T14:47:57.674Z,87.40
2023-05-22T14:50:29.247Z,87.70
2023-05-22T14:52:59.002Z,87.70
2023-05-22T14:55:29.862Z,87.90
2023-05-22T14:57:59.883Z,88.00
2023-05-22T15:00:30.408Z,87.90
2023-05-22T15:03:00.854Z,88.40
2023-05-22T15:05:31.113Z,88.30
2023-05-22T15:08:00.992Z,88.20
2023-05-22T15:10:30.825Z,88.80
2023-05-22T15:13:00.721Z,88.80
2023-05-22T15:15:30.485Z,89.30
2023-05-22T15:18:04.217Z,89.50
2023-05-22T15:20:34.249Z,89.80
2023-05-22T15:23:05.209Z,89.80
2023-05-22T15:25:38.378Z,89.90
2023-05-22T15:28:09.043Z,89.90
2023-05-22T15:30:40.592Z,90.10
2023-05-22T15:33:10.550Z,90.10
2023-05-22T15:35:40.599Z,90.20
2023-05-22T15:38:14.196Z,90.40
2023-05-22T15:40:44.373Z,90.50
2023-05-22T15:43:14.239Z,90.60
2023-05-22T15:45:45.048Z,90.50
2023-05-22T15:48:14.982Z,90.50
2023-05-22T15:50:45.237Z,90.50
2023-05-22T15:53:15.125Z,90.60
2023-05-22T15:55:44.940Z,90.50
2023-05-22T15:58:14.806Z,90.50
2023-05-22T16:00:44.821Z,90.40
2023-05-22T16:03:15.087Z,90.30
2023-05-22T16:05:47.320Z,90.30
2023-05-22T16:08:18.583Z,90.20
2023-05-22T16:10:48.974Z,90.20
2023-05-22T16:13:20.347Z,90.20
2023-05-22T16:15:50.266Z,90.20
2023-05-22T16:18:22.377Z,90.20
2023-05-22T16:20:53.105Z,90.20
2023-05-22T16:23:22.932Z,90.20
2023-05-22T16:25:52.904Z,90.10
2023-05-22T16:28:22.655Z,90.10
2023-05-22T16:30:52.897Z,90.00
2023-05-22T16:33:22.625Z,90.00
2023-05-22T16:35:52.537Z,89.80
2023-05-22T16:38:22.515Z,89.70
2023-05-22T16:40:52.453Z,89.70
2023-05-22T16:43:22.480Z,90.20
2023-05-22T16:45:53.040Z,89.60
2023-05-22T16:48:23.150Z,89.50
2023-05-22T16:50:53.451Z,89.60
2023-05-22T16:53:23.642Z,89.70
2023-05-22T16:55:53.738Z,89.50
2023-05-22T16:58:23.657Z,89.60
2023-05-22T17:00:53.655Z,89.20
2023-05-22T17:03:23.599Z,89.10
2023-05-22T17:05:53.587Z,88.60
2023-05-22T17:08:23.444Z,88.70
2023-05-22T17:10:53.221Z,88.80
2023-05-22T17:13:23.134Z,88.70
2023-05-22T17:15:56.123Z,88.70
2023-05-22T17:18:25.869Z,88.60
2023-05-22T17:20:57.481Z,88.60
2023-05-22T17:23:27.556Z,88.70
2023-05-22T17:25:57.392Z,88.40
2023-05-22T17:28:27.415Z,89.00
2023-05-22T17:30:58.140Z,88.40
2023-05-22T17:33:28.118Z,88.30
2023-05-22T17:35:58.059Z,88.30
2023-05-22T17:38:28.397Z,88.30
2023-05-22T17:40:58.338Z,88.30
2023-05-22T17:43:28.092Z,88.30
2023-05-22T17:45:57.945Z,88.30
2023-05-22T17:48:28.938Z,88.20
2023-05-22T17:50:58.942Z,88.20
2023-05-22T17:53:28.886Z,88.40
2023-05-22T17:55:58.596Z,88.50
2023-05-22T17:58:28.784Z,88.60
2023-05-22T18:00:58.906Z,88.60
2023-05-22T18:03:32.114Z,88.70
2023-05-22T18:06:01.910Z,88.50
2023-05-22T18:08:31.781Z,88.40
2023-05-22T18:11:01.480Z,88.30
2023-05-22T18:13:31.308Z,88.60
2023-05-22T18:16:03.250Z,88.60
2023-05-22T18:18:33.138Z,89.00
2023-05-22T18:21:03.819Z,89.30
2023-05-22T18:23:33.732Z,89.70
2023-05-22T18:26:03.472Z,89.60
2023-05-22T18:28:33.304Z,89.50
2023-05-22T18:31:03.861Z,89.50
2023-05-22T18:33:35.086Z,89.70
2023-05-22T18:36:06.190Z,89.80
2023-05-22T18:38:36.026Z,89.70
2023-05-22T18:41:05.805Z,89.70
2023-05-22T18:43:35.873Z,89.70
2023-05-22T18:46:05.655Z,89.80
2023-05-22T18:48:35.438Z,89.80
2023-05-22T18:51:05.205Z,89.80
2023-05-22T18:53:35.093Z,89.90
2023-05-22T18:56:04.890Z,89.90
2023-05-22T18:58:34.858Z,89.90
2023-05-22T19:01:04.713Z,89.90
2023-05-22T19:03:34.518Z,90.00
2023-05-22T19:06:04.503Z,90.00
2023-05-22T19:08:36.439Z,90.10
2023-05-22T19:11:06.136Z,90.40
2023-05-22T19:13:35.961Z,90.10
2023-05-22T19:16:06.621Z,90.10
2023-05-22T19:18:36.431Z,90.20
2023-05-22T19:21:06.502Z,90.30
2023-05-22T19:23:36.235Z,90.30
2023-05-22T19:26:06.315Z,90.20
2023-05-22T19:28:36.159Z,90.30
2023-05-22T19:31:06.127Z,90.20
2023-05-22T19:33:35.870Z,90.20
2023-05-22T19:36:08.216Z,90.30
2023-05-22T19:38:37.974Z,90.30
2023-05-22T19:41:07.819Z,90.30
2023-05-22T19:43:37.629Z,90.30
2023-05-22T19:46:09.015Z,90.30
2023-05-22T19:48:39.142Z,90.30
2023-05-22T19:51:10.426Z,90.30
2023-05-22T19:53:40.317Z,90.40
2023-05-22T19:56:10.100Z,90.40
2023-05-22T19:58:39.743Z,90.40
2023-05-22T20:01:09.528Z,90.30
2023-05-22T20:03:39.490Z,90.30
2023-05-22T20:06:09.517Z,90.30
2023-05-22T20:08:39.448Z,90.30
2023-05-22T20:11:09.765Z,90.30
2023-05-22T20:13:39.701Z,90.30
2023-05-22T20:16:13.495Z,90.30
2023-05-22T20:18:43.668Z,90.30
2023-05-22T20:21:13.469Z,90.40
2023-05-22T20:23:43.366Z,90.30
2023-05-22T20:26:13.023Z,90.30
2023-05-22T20:28:42.872Z,90.40
2023-05-22T20:31:12.659Z,90.40
2023-05-22T20:33:42.631Z,90.40
2023-05-22T20:36:12.511Z,90.40
2023-05-22T20:38:44.234Z,90.50
2023-05-22T20:41:14.656Z,90.50
2023-05-22T20:43:44.984Z,90.80
2023-05-22T20:46:14.845Z,90.50
2023-05-22T20:48:49.981Z,90.50
2023-05-22T20:51:22.854Z,90.50
2023-05-22T20:53:55.824Z,90.50
2023-05-22T20:56:26.540Z,90.60
2023-05-22T20:58:57.989Z,90.60
2023-05-22T21:01:27.810Z,90.50
2023-05-22T21:04:00.641Z,90.60
2023-05-22T21:06:30.456Z,90.60
2023-05-22T21:09:03.332Z,90.70
2023-05-22T21:11:33.200Z,90.80
2023-05-22T21:14:03.223Z,90.90
2023-05-22T21:16:33.430Z,90.90
2023-05-22T21:19:03.270Z,91.00
2023-05-22T21:21:33.176Z,91.00
2023-05-22T21:24:02.831Z,91.10
2023-05-22T21:26:32.712Z,91.20
2023-05-22T21:29:05.088Z,91.20
2023-05-22T21:31:35.822Z,91.20
2023-05-22T21:34:05.841Z,91.30
2023-05-22T21:36:35.529Z,91.30
2023-05-22T21:39:05.547Z,91.40
2023-05-22T21:41:35.458Z,91.40
2023-05-22T21:44:05.150Z,91.30
2023-05-22T21:46:35.021Z,91.30
2023-05-22T21:49:05.487Z,91.40
2023-05-22T21:51:35.336Z,91.50
2023-05-22T21:54:07.844Z,91.60
2023-05-22T21:56:37.783Z,91.70
2023-05-22T21:59:07.815Z,91.90
2023-05-22T22:01:37.666Z,92.00
2023-05-22T22:04:07.907Z,92.20
2023-05-22T22:06:39.618Z,92.30
2023-05-22T22:09:09.549Z,92.40
2023-05-22T22:11:39.262Z,92.40
2023-05-22T22:14:09.270Z,92.40
2023-05-22T22:16:39.635Z,92.30
2023-05-22T22:19:09.451Z,92.30
2023-05-22T22:21:39.551Z,92.60
2023-05-22T22:24:09.361Z,92.80
2023-05-22T22:26:39.227Z,92.90
2023-05-22T22:29:09.024Z,93.00
2023-05-22T22:31:38.963Z,93.10
2023-05-22T22:34:08.768Z,93.30
2023-05-22T22:36:38.492Z,93.30
2023-05-22T22:39:09.001Z,93.60
2023-05-22T22:41:38.766Z,93.60
2023-05-22T22:44:08.608Z,93.70
2023-05-22T22:46:38.534Z,93.90
2023-05-22T22:49:08.880Z,94.00
2023-05-22T22:51:39.508Z,94.00
2023-05-22T22:54:09.288Z,94.00
2023-05-22T22:56:39.106Z,93.90
2023-05-22T22:59:09.102Z,93.80
2023-05-22T23:01:38.891Z,93.80
2023-05-22T23:04:08.775Z,94.00
2023-05-22T23:06:38.656Z,94.10
2023-05-22T23:09:08.399Z,94.20
2023-05-22T23:11:41.330Z,94.30
2023-05-22T23:14:12.127Z,94.40
2023-05-22T23:16:42.703Z,94.40
2023-05-22T23:19:13.717Z,94.40
2023-05-22T23:21:43.601Z,94.50
2023-05-22T23:24:13.385Z,94.80
2023-05-22T23:26:42.943Z,94.60
2023-05-22T23:29:12.626Z,94.70
2023-05-22T23:31:42.431Z,94.80
2023-05-22T23:34:12.275Z,95.30
2023-05-22T23:36:42.977Z,95.00
2023-05-22T23:39:12.856Z,95.00
2023-05-22T23:41:43.959Z,95.10
2023-05-22T23:44:13.988Z,95.20
2023-05-22T23:46:45.160Z,95.40
2023-05-22T23:49:15.468Z,95.30
2023-05-22T23:51:45.291Z,95.30
2023-05-22T23:54:15.589Z,95.30
2023-05-22T23:56:45.835Z,95.50
2023-05-22T23:59:15.552Z,95.50
